sensor_id;sensor_type;location;lat;lon;timestamp;temperature;humidity
6672;DHT22;3372;48.690;12.362;2023-12-07T00:14:00;4.10;99.90
6672;DHT22;3372;48.690;12.362;2023-12-07T01:27:41;3.90;99.90
6672;DHT22;3372;48.690;12.362;2023-12-07T01:30:08;3.90;99.90
6672;DHT22;3372;48.690;12.362;2023-12-07T01:32:36;4.00;99.90
6672;DHT22;3372;48.690;12.362;2023-12-07T01:35:04;4.00;99.90
6672;DHT22;3372;48.690;12.362;2023-12-07T01:37:31;4.00;99.90
6672;DHT22;3372;48.690;12.362;2023-12-07T01:40:01;4.00;99.90
6672;DHT22;3372;48.690;12.362;2023-12-07T01:46:28;4.00;99.90
6672;DHT22;3372;48.690;12.362;2023-12-07T01:53:26;4.00;99.90
6672;DHT22;3372;48.690;12.362;2023-12-07T01:57:16;4.00;99.90
6672;DHT22;3372;48.690;12.362;2023-12-07T02:00:42;4.00;99.90
6672;DHT22;3372;48.690;12.362;2023-12-07T02:03:43;3.90;99.90
6672;DHT22;3372;48.690;12.362;2023-12-07T02:07:16;3.90;99.90
6672;DHT22;3372;48.690;12.362;2023-12-07T02:13:17;3.80;99.90
6672;DHT22;3372;48.690;12.362;2023-12-07T02:15:47;3.70;99.90
6672;DHT22;3372;48.690;12.362;2023-12-07T02:19:07;3.80;99.90
6672;DHT22;3372;48.690;12.362;2023-12-07T02:21:56;3.90;99.90
6672;DHT22;3372;48.690;12.362;2023-12-07T02:24:54;3.90;99.90
6672;DHT22;3372;48.690;12.362;2023-12-07T02:27:46;3.80;99.90
6672;DHT22;3372;48.690;12.362;2023-12-07T02:30:13;3.70;99.90
6672;DHT22;3372;48.690;12.362;2023-12-07T02:32:42;3.80;99.90
6672;DHT22;3372;48.690;12.362;2023-12-07T02:35:11;3.80;99.90
6672;DHT22;3372;48.690;12.362;2023-12-07T02:38:00;3.80;99.90
6672;DHT22;3372;48.690;12.362;2023-12-07T02:41:18;3.80;99.90
6672;DHT22;3372;48.690;12.362;2023-12-07T02:48:05;3.90;99.90
6672;DHT22;3372;48.690;12.362;2023-12-07T03:54:55;4.20;99.90
6672;DHT22;3372;48.690;12.362;2023-12-07T03:58:32;4.20;99.90
6672;DHT22;3372;48.690;12.362;2023-12-07T04:08:47;3.90;99.90
6672;DHT22;3372;48.690;12.362;2023-12-07T04:11:57;4.20;99.90
6672;DHT22;3372;48.690;12.362;2023-12-07T04:15:11;3.80;99.90
6672;DHT22;3372;48.690;12.362;2023-12-07T04:18:27;4.00;99.90
6672;DHT22;3372;48.690;12.362;2023-12-07T04:38:43;3.80;99.90
6672;DHT22;3372;48.690;12.362;2023-12-07T04:41:43;3.90;99.90
6672;DHT22;3372;48.690;12.362;2023-12-07T06:28:38;3.70;99.90
6672;DHT22;3372;48.690;12.362;2023-12-07T07:36:32;3.90;99.90
6672;DHT22;3372;48.690;12.362;2023-12-07T07:38:58;3.60;99.90
6672;DHT22;3372;48.690;12.362;2023-12-07T07:41:23;3.90;99.90
6672;DHT22;3372;48.690;12.362;2023-12-07T07:43:49;3.70;99.90
6672;DHT22;3372;48.690;12.362;2023-12-07T07:46:16;3.80;99.90
6672;DHT22;3372;48.690;12.362;2023-12-07T07:48:41;4.00;99.90
6672;DHT22;3372;48.690;12.362;2023-12-07T07:51:07;3.90;99.90
6672;DHT22;3372;48.690;12.362;2023-12-07T07:53:33;3.90;99.90
6672;DHT22;3372;48.690;12.362;2023-12-07T07:55:59;4.10;99.90
6672;DHT22;3372;48.690;12.362;2023-12-07T07:58:26;4.20;99.90
6672;DHT22;3372;48.690;12.362;2023-12-07T08:00:51;4.00;99.90
6672;DHT22;3372;48.690;12.362;2023-12-07T08:03:27;4.00;99.90
6672;DHT22;3372;48.690;12.362;2023-12-07T08:05:52;4.10;99.90
6672;DHT22;3372;48.690;12.362;2023-12-07T08:08:20;4.00;99.90
6672;DHT22;3372;48.690;12.362;2023-12-07T08:10:48;4.20;99.90
6672;DHT22;3372;48.690;12.362;2023-12-07T08:13:13;4.30;99.90
6672;DHT22;3372;48.690;12.362;2023-12-07T08:15:39;4.30;99.90
6672;DHT22;3372;48.690;12.362;2023-12-07T08:18:05;4.10;99.90
6672;DHT22;3372;48.690;12.362;2023-12-07T08:20:31;4.10;99.90
6672;DHT22;3372;48.690;12.362;2023-12-07T08:22:56;4.20;99.90
6672;DHT22;3372;48.690;12.362;2023-12-07T08:25:22;4.20;99.90
6672;DHT22;3372;48.690;12.362;2023-12-07T08:27:50;4.30;99.90
6672;DHT22;3372;48.690;12.362;2023-12-07T08:30:16;4.20;99.90
6672;DHT22;3372;48.690;12.362;2023-12-07T08:32:42;4.10;99.90
6672;DHT22;3372;48.690;12.362;2023-12-07T08:35:07;4.10;99.90
6672;DHT22;3372;48.690;12.362;2023-12-07T08:37:33;4.00;99.90
6672;DHT22;3372;48.690;12.362;2023-12-07T08:40:02;4.10;99.90
6672;DHT22;3372;48.690;12.362;2023-12-07T08:42:27;4.10;99.90
6672;DHT22;3372;48.690;12.362;2023-12-07T08:44:53;4.20;99.90
6672;DHT22;3372;48.690;12.362;2023-12-07T08:47:19;4.20;99.90
6672;DHT22;3372;48.690;12.362;2023-12-07T08:49:46;4.20;99.90
6672;DHT22;3372;48.690;12.362;2023-12-07T08:52:12;4.20;99.90
6672;DHT22;3372;48.690;12.362;2023-12-07T08:54:38;4.20;99.90
6672;DHT22;3372;48.690;12.362;2023-12-07T08:57:04;4.20;99.90
6672;DHT22;3372;48.690;12.362;2023-12-07T08:59:30;4.20;99.90
6672;DHT22;3372;48.690;12.362;2023-12-07T09:01:56;4.20;99.90
6672;DHT22;3372;48.690;12.362;2023-12-07T09:04:22;4.30;99.90
6672;DHT22;3372;48.690;12.362;2023-12-07T09:06:48;4.30;99.90
6672;DHT22;3372;48.690;12.362;2023-12-07T09:09:13;4.40;99.90
6672;DHT22;3372;48.690;12.362;2023-12-07T09:11:40;4.50;99.90
6672;DHT22;3372;48.690;12.362;2023-12-07T09:14:07;4.40;99.90
6672;DHT22;3372;48.690;12.362;2023-12-07T09:16:33;4.30;99.90
6672;DHT22;3372;48.690;12.362;2023-12-07T09:19:00;4.50;99.90
6672;DHT22;3372;48.690;12.362;2023-12-07T09:21:25;4.40;99.90
6672;DHT22;3372;48.690;12.362;2023-12-07T11:13:27;7.20;99.90
6672;DHT22;3372;48.690;12.362;2023-12-07T11:15:55;7.30;99.90
6672;DHT22;3372;48.690;12.362;2023-12-07T11:18:24;7.20;99.90
6672;DHT22;3372;48.690;12.362;2023-12-07T11:20:49;7.30;99.90
6672;DHT22;3372;48.690;12.362;2023-12-07T11:23:18;7.20;99.90
6672;DHT22;3372;48.690;12.362;2023-12-07T11:25:46;7.30;99.90
6672;DHT22;3372;48.690;12.362;2023-12-07T11:28:13;7.30;99.90
6672;DHT22;3372;48.690;12.362;2023-12-07T11:30:42;7.20;99.90
6672;DHT22;3372;48.690;12.362;2023-12-07T11:33:10;7.30;99.90
6672;DHT22;3372;48.690;12.362;2023-12-07T11:38:28;7.30;99.90
6672;DHT22;3372;48.690;12.362;2023-12-07T11:40:55;7.30;99.90
6672;DHT22;3372;48.690;12.362;2023-12-07T11:43:36;7.30;99.90
6672;DHT22;3372;48.690;12.362;2023-12-07T11:46:10;7.20;99.90
6672;DHT22;3372;48.690;12.362;2023-12-07T11:48:36;7.10;99.90
6672;DHT22;3372;48.690;12.362;2023-12-07T11:51:04;7.10;99.90
6672;DHT22;3372;48.690;12.362;2023-12-07T11:53:35;7.10;99.90
6672;DHT22;3372;48.690;12.362;2023-12-07T11:56:03;7.00;99.90
6672;DHT22;3372;48.690;12.362;2023-12-07T11:58:30;7.10;99.90
6672;DHT22;3372;48.690;12.362;2023-12-07T12:00:59;7.10;99.90
6672;DHT22;3372;48.690;12.362;2023-12-07T12:03:26;7.20;99.90
6672;DHT22;3372;48.690;12.362;2023-12-07T12:05:53;7.10;99.90
6672;DHT22;3372;48.690;12.362;2023-12-07T12:08:20;7.10;99.90
6672;DHT22;3372;48.690;12.362;2023-12-07T12:10:47;7.10;99.90
6672;DHT22;3372;48.690;12.362;2023-12-07T12:13:15;7.00;99.90
6672;DHT22;3372;48.690;12.362;2023-12-07T12:15:42;7.00;99.90
6672;DHT22;3372;48.690;12.362;2023-12-07T12:18:08;7.00;99.90
6672;DHT22;3372;48.690;12.362;2023-12-07T12:20:35;6.80;99.90
6672;DHT22;3372;48.690;12.362;2023-12-07T12:23:01;6.80;99.90
6672;DHT22;3372;48.690;12.362;2023-12-07T12:30:47;6.50;99.90
6672;DHT22;3372;48.690;12.362;2023-12-07T12:36:15;6.50;99.90
6672;DHT22;3372;48.690;12.362;2023-12-07T12:39:05;6.30;99.90
6672;DHT22;3372;48.690;12.362;2023-12-07T12:41:55;6.20;99.90
6672;DHT22;3372;48.690;12.362;2023-12-07T12:44:31;6.10;99.90
6672;DHT22;3372;48.690;12.362;2023-12-07T12:47:00;6.20;99.90
6672;DHT22;3372;48.690;12.362;2023-12-07T12:49:38;6.10;99.90
6672;DHT22;3372;48.690;12.362;2023-12-07T12:52:19;6.00;99.90
6672;DHT22;3372;48.690;12.362;2023-12-07T12:54:52;6.00;99.90
6672;DHT22;3372;48.690;12.362;2023-12-07T12:58:15;6.00;99.90
6672;DHT22;3372;48.690;12.362;2023-12-07T13:00:57;5.90;99.90
6672;DHT22;3372;48.690;12.362;2023-12-07T13:03:24;5.80;99.90
6672;DHT22;3372;48.690;12.362;2023-12-07T13:05:54;5.80;99.90
6672;DHT22;3372;48.690;12.362;2023-12-07T13:45:47;5.40;99.90
6672;DHT22;3372;48.690;12.362;2023-12-07T13:48:48;5.40;99.90
6672;DHT22;3372;48.690;12.362;2023-12-07T13:51:23;5.40;99.90
6672;DHT22;3372;48.690;12.362;2023-12-07T13:53:55;5.40;99.90
6672;DHT22;3372;48.690;12.362;2023-12-07T13:56:22;5.40;99.90
6672;DHT22;3372;48.690;12.362;2023-12-07T13:58:50;5.30;99.90
6672;DHT22;3372;48.690;12.362;2023-12-07T14:01:25;5.20;99.90
6672;DHT22;3372;48.690;12.362;2023-12-07T14:03:53;5.30;99.90
6672;DHT22;3372;48.690;12.362;2023-12-07T14:06:23;5.30;99.90
6672;DHT22;3372;48.690;12.362;2023-12-07T14:17:01;5.30;99.90
6672;DHT22;3372;48.690;12.362;2023-12-07T14:19:27;5.30;99.90
6672;DHT22;3372;48.690;12.362;2023-12-07T14:21:54;5.20;99.90
6672;DHT22;3372;48.690;12.362;2023-12-07T14:24:22;5.20;99.90
6672;DHT22;3372;48.690;12.362;2023-12-07T14:26:47;5.10;99.90
6672;DHT22;3372;48.690;12.362;2023-12-07T14:29:14;5.10;99.90
6672;DHT22;3372;48.690;12.362;2023-12-07T14:31:46;5.20;99.90
6672;DHT22;3372;48.690;12.362;2023-12-07T14:34:12;5.10;99.90
6672;DHT22;3372;48.690;12.362;2023-12-07T14:36:39;5.00;99.90
6672;DHT22;3372;48.690;12.362;2023-12-07T14:39:17;4.90;99.90
6672;DHT22;3372;48.690;12.362;2023-12-07T14:41:53;4.90;99.90
6672;DHT22;3372;48.690;12.362;2023-12-07T14:44:23;4.80;99.90
6672;DHT22;3372;48.690;12.362;2023-12-07T22:25:24;0.80;99.90
6672;DHT22;3372;48.690;12.362;2023-12-07T22:27:49;0.80;99.90
6672;DHT22;3372;48.690;12.362;2023-12-07T22:41:01;0.70;99.90
6672;DHT22;3372;48.690;12.362;2023-12-07T22:44:12;0.60;99.90
6672;DHT22;3372;48.690;12.362;2023-12-07T22:47:34;0.60;99.90
6672;DHT22;3372;48.690;12.362;2023-12-07T22:50:27;0.50;99.90
6672;DHT22;3372;48.690;12.362;2023-12-07T22:53:41;0.50;99.90
6672;DHT22;3372;48.690;12.362;2023-12-07T22:56:44;0.60;99.90
6672;DHT22;3372;48.690;12.362;2023-12-07T23:02:53;0.60;99.90
6672;DHT22;3372;48.690;12.362;2023-12-07T23:06:09;0.60;99.90
6672;DHT22;3372;48.690;12.362;2023-12-07T23:09:10;0.60;99.90
6672;DHT22;3372;48.690;12.362;2023-12-07T23:12:07;0.60;99.90
6672;DHT22;3372;48.690;12.362;2023-12-07T23:19:13;0.40;99.90
